Decoded Metar for KDSF ( in ) (IATA:) | Meteo·Mobile Aviation Weather
aviador You're here:

KDSF Decoded Metar

in
Report Time2018-09-23 11:35:00
UTC Time2018-09-23 11:54:31
Flight Rules vfr VFR
Wind120° at 08 kt
W.Rank120° ranks 14
Current wind is below 120° avg. (13.4)
Visibility9999 m
Phenomena:N/A
Clouds:N/A
Expected CloudBase > 2,400 ft AGL from Temp-Dew spread
CeilingNone
Temp28°C
Dew Point22°C (70% RH)
Heat Index30.7°C
QNH1014 hPa
Raw Report
METAR KDSF 231135Z AUTO 12008KT 10SM CLR 28/22 A2995 RMK A01=

Extra information for KDSF:More info

Social comments